Time;durP1;ratioP1;P1;durP2;ratioP2;P2;SDS_P1;SDS_P2;PMS_P1;PMS_P2;Temp;Humidity;BMP_temperature;BMP_pressure;BME280_temperature;BME280_humidity;BME280_pressure;Samples;Min_cycle;Max_cycle;Signal;HPM_P1;HPM_P2
2021/06/12 00:00:33;;;;;;;6.63;5.45;;;;;;;;;;5057742;28;20271;-73
2021/06/12 00:02:58;;;;;;;7.43;5.60;;;;;;;;;;5051742;28;20531;-72
2021/06/12 00:05:24;;;;;;;8.52;5.85;;;;;;;;;;5052933;28;20024;-73
2021/06/12 00:07:49;;;;;;;8.65;5.85;;;;;;;;;;5057937;28;20040;-73
2021/06/12 00:10:16;;;;;;;7.80;5.78;;;;;;;;;;5030825;28;20036;-73
2021/06/12 00:12:42;;;;;;;6.68;5.97;;;;;;;;;;5050883;28;20017;-74
2021/06/12 00:15:08;;;;;;;6.57;5.57;;;;;;;;;;5048744;28;20035;-73
2021/06/12 00:17:34;;;;;;;7.28;5.00;;;;;;;;;;5041250;28;20043;-73
2021/06/12 00:19:59;;;;;;;7.88;5.28;;;;;;;;;;5055115;28;20033;-74
2021/06/12 00:22:24;;;;;;;8.30;5.38;;;;;;;;;;5047788;28;20021;-73
2021/06/12 00:24:49;;;;;;;6.47;5.33;;;;;;;;;;5051417;28;20520;-74
2021/06/12 00:27:14;;;;;;;7.47;5.37;;;;;;;;;;5059118;28;20283;-73
2021/06/12 00:29:39;;;;;;;6.88;5.57;;;;;;;;;;5049032;28;20355;-74
2021/06/12 00:32:05;;;;;;;7.93;5.60;;;;;;;;;;5047354;28;20024;-73
2021/06/12 00:34:30;;;;;;;9.65;5.45;;;;;;;;;;5047208;28;20545;-73
2021/06/12 00:36:55;;;;;;;8.40;5.90;;;;;;;;;;5063297;28;20067;-73
2021/06/12 00:39:20;;;;;;;6.82;5.45;;;;;;;;;;5046213;28;20021;-73
2021/06/12 00:41:45;;;;;;;7.83;5.90;;;;;;;;;;5053310;28;20115;-73
2021/06/12 00:44:11;;;;;;;8.40;5.90;;;;;;;;;;5031154;28;20291;-74
2021/06/12 00:46:36;;;;;;;9.27;5.80;;;;;;;;;;5062436;28;20021;-73
2021/06/12 00:49:01;;;;;;;7.03;5.47;;;;;;;;;;5055431;28;20029;-73
2021/06/12 00:51:27;;;;;;;8.73;5.93;;;;;;;;;;5048659;28;20054;-74
2021/06/12 00:53:53;;;;;;;6.47;5.40;;;;;;;;;;5054479;28;20031;-74
2021/06/12 00:56:19;;;;;;;7.38;5.68;;;;;;;;;;5055110;28;20095;-73
2021/06/12 00:58:45;;;;;;;5.85;4.88;;;;;;;;;;5048473;28;20044;-73
2021/06/12 01:01:10;;;;;;;9.27;5.50;;;;;;;;;;5049564;28;20059;-74
2021/06/12 01:03:39;;;;;;;6.30;5.00;;;;;;;;;;5060452;28;20033;-74
2021/06/12 01:06:04;;;;;;;7.22;5.57;;;;;;;;;;5043319;28;20082;-74
2021/06/12 01:08:29;;;;;;;9.27;5.32;;;;;;;;;;5054026;28;20614;-73
2021/06/12 01:10:54;;;;;;;7.43;5.03;;;;;;;;;;5053096;28;20021;-72
2021/06/12 01:13:20;;;;;;;6.55;5.22;;;;;;;;;;5046237;28;20029;-73
2021/06/12 01:15:55;;;;;;;8.02;5.65;;;;;;;;;;5058682;28;20024;-73
2021/06/12 01:18:26;;;;;;;6.20;5.18;;;;;;;;;;5047562;28;20750;-73
2021/06/12 01:20:57;;;;;;;6.53;5.15;;;;;;;;;;5060850;28;20127;-74
2021/06/12 01:23:41;;;;;;;7.10;5.43;;;;;;;;;;5060936;28;20021;-73
2021/06/12 01:26:24;;;;;;;7.07;5.78;;;;;;;;;;5045945;28;20035;-73
2021/06/12 01:28:58;;;;;;;7.53;5.63;;;;;;;;;;5054262;28;20029;-73
2021/06/12 01:31:24;;;;;;;7.00;5.25;;;;;;;;;;5047707;28;20021;-74
2021/06/12 01:33:51;;;;;;;6.80;5.25;;;;;;;;;;5064523;28;20056;-73
2021/06/12 01:36:16;;;;;;;7.07;4.90;;;;;;;;;;5049575;28;20039;-74
2021/06/12 01:38:44;;;;;;;7.93;5.00;;;;;;;;;;5061261;28;20017;-73
2021/06/12 01:41:11;;;;;;;7.40;5.65;;;;;;;;;;5039060;28;20475;-74
2021/06/12 01:43:37;;;;;;;5.97;4.97;;;;;;;;;;5056714;28;20032;-74
2021/06/12 01:46:04;;;;;;;8.18;5.60;;;;;;;;;;5049832;28;20020;-73
2021/06/12 01:48:29;;;;;;;7.43;5.38;;;;;;;;;;5056141;28;20059;-74
2021/06/12 01:50:57;;;;;;;8.45;5.50;;;;;;;;;;5060050;28;20017;-73
2021/06/12 01:53:30;;;;;;;7.70;5.40;;;;;;;;;;5052218;28;20060;-75
2021/06/12 01:55:57;;;;;;;7.13;5.78;;;;;;;;;;5061176;28;20095;-73
2021/06/12 01:58:23;;;;;;;6.80;5.10;;;;;;;;;;5057929;28;20501;-74
2021/06/12 02:00:49;;;;;;;6.93;5.85;;;;;;;;;;5066462;28;20028;-75
2021/06/12 02:03:15;;;;;;;6.18;5.05;;;;;;;;;;5046623;28;20032;-73
2021/06/12 02:05:41;;;;;;;7.10;5.38;;;;;;;;;;5058045;28;20095;-73
2021/06/12 02:08:07;;;;;;;6.28;5.07;;;;;;;;;;5063213;28;20198;-73
2021/06/12 02:10:32;;;;;;;6.60;5.40;;;;;;;;;;5052015;28;20392;-73
2021/06/12 02:12:58;;;;;;;8.63;5.60;;;;;;;;;;5054069;28;20032;-74
2021/06/12 02:15:25;;;;;;;7.47;5.97;;;;;;;;;;5050339;28;20163;-73
2021/06/12 02:17:55;;;;;;;8.68;5.45;;;;;;;;;;5049486;28;20383;-74
2021/06/12 02:20:21;;;;;;;7.15;5.88;;;;;;;;;;5041770;28;20028;-73
2021/06/12 02:22:49;;;;;;;6.90;5.63;;;;;;;;;;5051663;28;20024;-74
2021/06/12 02:25:15;;;;;;;6.53;5.22;;;;;;;;;;5049237;28;20044;-74
2021/06/12 02:27:45;;;;;;;6.35;5.10;;;;;;;;;;5061639;28;20056;-73
2021/06/12 02:30:11;;;;;;;8.32;6.20;;;;;;;;;;5050371;28;20111;-74
2021/06/12 02:32:37;;;;;;;7.13;5.50;;;;;;;;;;5058577;28;20131;-74
2021/06/12 02:35:04;;;;;;;6.47;4.75;;;;;;;;;;5042392;28;20052;-73
2021/06/12 02:37:29;;;;;;;7.68;5.60;;;;;;;;;;5050739;28;20039;-73
2021/06/12 02:39:54;;;;;;;6.63;5.32;;;;;;;;;;5051279;28;20379;-73
2021/06/12 02:42:20;;;;;;;6.35;5.47;;;;;;;;;;5032343;28;20040;-73
2021/06/12 02:44:45;;;;;;;6.53;5.40;;;;;;;;;;5049607;28;20025;-73
2021/06/12 02:47:11;;;;;;;6.40;5.10;;;;;;;;;;5055232;28;20464;-74
2021/06/12 02:49:37;;;;;;;6.07;5.07;;;;;;;;;;5061554;28;20468;-73
2021/06/12 02:52:04;;;;;;;7.95;5.78;;;;;;;;;;5060915;28;20056;-72
2021/06/12 02:54:30;;;;;;;7.10;5.72;;;;;;;;;;5057870;28;20480;-74
2021/06/12 02:56:56;;;;;;;7.15;5.28;;;;;;;;;;5048024;28;20049;-73
2021/06/12 02:59:21;;;;;;;6.50;5.15;;;;;;;;;;5044697;28;20064;-73
2021/06/12 03:01:47;;;;;;;6.90;5.80;;;;;;;;;;5054114;28;20025;-73
2021/06/12 03:04:14;;;;;;;6.50;5.03;;;;;;;;;;5051421;28;20079;-74
2021/06/12 03:06:40;;;;;;;7.53;5.22;;;;;;;;;;5048073;28;20464;-73
2021/06/12 03:09:06;;;;;;;7.30;5.40;;;;;;;;;;5048326;28;20401;-73
2021/06/12 03:11:33;;;;;;;6.13;5.32;;;;;;;;;;5051156;28;20116;-72
2021/06/12 03:13:58;;;;;;;6.65;5.43;;;;;;;;;;5055677;28;20136;-72
2021/06/12 03:16:24;;;;;;;8.55;5.47;;;;;;;;;;5058266;28;20111;-73
2021/06/12 03:18:49;;;;;;;7.03;5.18;;;;;;;;;;5054260;28;20108;-72
2021/06/12 03:21:16;;;;;;;6.80;5.50;;;;;;;;;;5056822;28;20063;-73
2021/06/12 03:23:41;;;;;;;6.72;5.05;;;;;;;;;;5059105;28;20052;-72
2021/06/12 03:26:08;;;;;;;6.38;5.00;;;;;;;;;;5058584;28;20071;-72
2021/06/12 03:28:33;;;;;;;7.80;5.50;;;;;;;;;;5047377;28;20025;-72
2021/06/12 03:31:03;;;;;;;8.07;5.78;;;;;;;;;;5058622;28;20020;-73
2021/06/12 03:33:28;;;;;;;10.77;5.70;;;;;;;;;;5045192;28;20166;-72
2021/06/12 03:35:54;;;;;;;5.82;4.63;;;;;;;;;;5049078;28;20063;-73
2021/06/12 03:38:20;;;;;;;6.70;5.45;;;;;;;;;;5054247;28;20017;-75
2021/06/12 03:40:45;;;;;;;7.28;5.35;;;;;;;;;;5029752;28;20056;-72
2021/06/12 03:43:10;;;;;;;6.85;5.38;;;;;;;;;;5046379;28;20085;-73
2021/06/12 03:45:41;;;;;;;6.63;5.40;;;;;;;;;;5051834;28;20115;-72
2021/06/12 03:48:08;;;;;;;6.57;4.95;;;;;;;;;;5050102;28;20502;-73
2021/06/12 03:50:33;;;;;;;5.80;4.60;;;;;;;;;;5060422;28;20418;-72
2021/06/12 03:52:58;;;;;;;8.80;5.15;;;;;;;;;;5056429;28;20096;-73
2021/06/12 03:55:23;;;;;;;8.05;5.30;;;;;;;;;;5065239;28;20028;-73
2021/06/12 03:57:48;;;;;;;6.43;5.20;;;;;;;;;;5061530;28;20054;-73
2021/06/12 04:00:15;;;;;;;8.13;5.53;;;;;;;;;;5045040;28;20017;-73
2021/06/12 04:02:40;;;;;;;6.60;4.88;;;;;;;;;;5058854;28;20113;-73
2021/06/12 04:05:05;;;;;;;5.72;4.68;;;;;;;;;;5047328;28;20615;-73
2021/06/12 04:07:31;;;;;;;6.63;4.97;;;;;;;;;;5060232;28;20097;-74
2021/06/12 04:09:56;;;;;;;6.45;5.22;;;;;;;;;;5052803;28;20059;-73
2021/06/12 04:12:21;;;;;;;6.03;4.72;;;;;;;;;;5046962;28;20652;-73
2021/06/12 04:14:46;;;;;;;6.97;4.97;;;;;;;;;;5048749;28;20480;-73
2021/06/12 04:17:12;;;;;;;6.38;5.30;;;;;;;;;;5064638;28;20035;-74
2021/06/12 04:19:38;;;;;;;6.60;4.80;;;;;;;;;;5054726;28;20056;-73
2021/06/12 04:22:03;;;;;;;5.75;4.50;;;;;;;;;;5053089;28;20111;-73
2021/06/12 04:24:28;;;;;;;6.60;4.40;;;;;;;;;;5046521;28;20131;-73
2021/06/12 04:26:54;;;;;;;7.43;4.78;;;;;;;;;;5058466;28;20119;-73
2021/06/12 04:29:19;;;;;;;5.40;4.43;;;;;;;;;;5032424;28;20024;-72
2021/06/12 04:31:44;;;;;;;5.63;4.53;;;;;;;;;;5047201;28;20302;-73
2021/06/12 04:34:09;;;;;;;5.07;4.17;;;;;;;;;;5048446;28;20044;-73
2021/06/12 04:36:34;;;;;;;7.60;4.53;;;;;;;;;;5050125;28;20287;-73
2021/06/12 04:38:59;;;;;;;6.00;4.17;;;;;;;;;;5060832;28;20024;-74
2021/06/12 04:41:25;;;;;;;5.57;4.53;;;;;;;;;;5051308;28;20278;-72
2021/06/12 04:43:50;;;;;;;6.40;4.40;;;;;;;;;;5048623;28;20275;-73
2021/06/12 04:46:15;;;;;;;6.00;4.07;;;;;;;;;;5047268;28;20274;-72
2021/06/12 04:48:40;;;;;;;6.63;4.18;;;;;;;;;;5046738;28;20033;-72
2021/06/12 04:51:06;;;;;;;5.53;4.50;;;;;;;;;;5048134;28;20017;-72
2021/06/12 04:53:31;;;;;;;4.88;4.05;;;;;;;;;;5047147;28;20110;-74
2021/06/12 04:55:57;;;;;;;4.10;3.70;;;;;;;;;;5051298;28;20368;-73
2021/06/12 04:58:22;;;;;;;6.15;3.95;;;;;;;;;;5052314;28;20283;-74
2021/06/12 05:00:50;;;;;;;4.35;3.90;;;;;;;;;;5049379;28;20035;-74
2021/06/12 05:03:15;;;;;;;4.88;3.40;;;;;;;;;;5043811;28;20021;-73
2021/06/12 05:05:40;;;;;;;5.10;3.88;;;;;;;;;;5051234;28;20045;-72
2021/06/12 05:08:06;;;;;;;4.83;4.07;;;;;;;;;;5044493;28;20041;-74
2021/06/12 05:10:31;;;;;;;4.83;4.07;;;;;;;;;;5049804;28;20717;-73
2021/06/12 05:12:56;;;;;;;5.00;3.93;;;;;;;;;;5043406;28;20362;-75
2021/06/12 05:15:27;;;;;;;5.23;3.90;;;;;;;;;;5045069;28;20807;-73
2021/06/12 05:17:52;;;;;;;5.88;3.75;;;;;;;;;;5041380;28;20306;-73
2021/06/12 05:20:17;;;;;;;4.80;3.45;;;;;;;;;;5047082;28;20529;-73
2021/06/12 05:22:42;;;;;;;6.68;3.70;;;;;;;;;;5039100;28;20029;-72
2021/06/12 05:25:08;;;;;;;6.10;3.50;;;;;;;;;;5042920;28;20483;-74
2021/06/12 05:27:33;;;;;;;4.97;3.72;;;;;;;;;;5044774;28;20080;-73
2021/06/12 05:29:58;;;;;;;4.60;3.30;;;;;;;;;;5044096;28;20021;-73
2021/06/12 05:32:23;;;;;;;4.63;3.70;;;;;;;;;;5043465;28;20037;-73
2021/06/12 05:34:48;;;;;;;9.63;3.80;;;;;;;;;;5046538;28;20409;-73
2021/06/12 05:37:14;;;;;;;4.13;3.43;;;;;;;;;;5048969;28;20283;-74
2021/06/12 05:39:39;;;;;;;4.85;3.97;;;;;;;;;;5049039;28;20290;-73
2021/06/12 05:42:05;;;;;;;4.50;3.85;;;;;;;;;;5055784;28;20024;-73
2021/06/12 05:44:30;;;;;;;4.55;3.92;;;;;;;;;;5055157;28;20020;-74
2021/06/12 05:46:55;;;;;;;6.63;4.10;;;;;;;;;;5061569;28;20383;-72
2021/06/12 05:49:21;;;;;;;4.63;3.83;;;;;;;;;;5046098;28;20576;-73
2021/06/12 05:51:46;;;;;;;4.75;3.75;;;;;;;;;;5056811;28;20028;-73
2021/06/12 05:54:11;;;;;;;4.28;3.50;;;;;;;;;;5050731;28;20325;-73
2021/06/12 05:56:37;;;;;;;4.68;3.75;;;;;;;;;;5044679;28;20021;-72
2021/06/12 05:59:02;;;;;;;5.20;3.63;;;;;;;;;;5062027;28;20024;-72
2021/06/12 06:01:27;;;;;;;5.53;3.67;;;;;;;;;;5057947;28;20336;-73
2021/06/12 06:03:52;;;;;;;4.82;3.95;;;;;;;;;;5053328;28;20116;-72
2021/06/12 06:06:17;;;;;;;4.77;3.30;;;;;;;;;;5052595;28;20122;-73
2021/06/12 06:08:43;;;;;;;4.30;3.90;;;;;;;;;;5054877;28;20372;-73
2021/06/12 06:11:08;;;;;;;7.03;4.07;;;;;;;;;;5061611;28;20259;-72
2021/06/12 06:13:37;;;;;;;4.50;3.80;;;;;;;;;;5055437;28;20027;-73
2021/06/12 06:16:02;;;;;;;4.68;3.95;;;;;;;;;;5050045;28;20383;-75
2021/06/12 06:18:27;;;;;;;4.45;4.03;;;;;;;;;;5058888;28;20028;-74
2021/06/12 06:20:53;;;;;;;4.85;4.10;;;;;;;;;;5051857;28;20017;-75
2021/06/12 06:23:18;;;;;;;4.83;4.17;;;;;;;;;;5042992;28;20035;-73
2021/06/12 06:25:43;;;;;;;4.83;3.87;;;;;;;;;;5050430;28;20259;-73
2021/06/12 06:28:08;;;;;;;5.67;4.00;;;;;;;;;;5063516;28;20291;-74
2021/06/12 06:30:33;;;;;;;6.35;3.70;;;;;;;;;;5049754;28;20140;-73
2021/06/12 06:32:59;;;;;;;9.57;4.18;;;;;;;;;;5050070;28;20071;-73
2021/06/12 06:35:24;;;;;;;5.00;4.30;;;;;;;;;;5030682;28;20048;-73
2021/06/12 06:37:49;;;;;;;7.13;4.20;;;;;;;;;;5031491;28;20303;-73
2021/06/12 06:40:15;;;;;;;4.38;3.97;;;;;;;;;;5062359;28;20108;-73
2021/06/12 06:42:42;;;;;;;5.30;4.15;;;;;;;;;;5058742;28;20070;-73
2021/06/12 06:45:07;;;;;;;5.65;4.80;;;;;;;;;;5046655;28;20021;-74
2021/06/12 06:47:33;;;;;;;5.28;4.05;;;;;;;;;;5054803;28;20051;-73
2021/06/12 06:49:58;;;;;;;6.82;4.60;;;;;;;;;;5048659;28;20032;-74
2021/06/12 06:52:23;;;;;;;6.60;4.70;;;;;;;;;;5050600;28;20020;-74
2021/06/12 06:54:48;;;;;;;4.85;4.32;;;;;;;;;;5059926;28;20086;-73
2021/06/12 06:57:13;;;;;;;5.93;4.57;;;;;;;;;;5056912;28;20055;-74
2021/06/12 06:59:39;;;;;;;4.55;3.88;;;;;;;;;;5049969;28;20050;-74
2021/06/12 07:02:04;;;;;;;5.50;4.60;;;;;;;;;;5053841;28;20119;-75
2021/06/12 07:04:29;;;;;;;8.87;4.97;;;;;;;;;;5057335;28;20278;-73
2021/06/12 07:06:54;;;;;;;7.63;4.65;;;;;;;;;;5052535;28;20362;-74
2021/06/12 07:09:19;;;;;;;5.80;4.40;;;;;;;;;;5054565;28;20127;-74
2021/06/12 07:11:45;;;;;;;5.15;4.32;;;;;;;;;;5065928;28;20062;-74
2021/06/12 07:14:10;;;;;;;6.50;4.13;;;;;;;;;;5055987;28;20036;-74
2021/06/12 07:16:35;;;;;;;6.38;4.43;;;;;;;;;;5048206;28;20024;-73
2021/06/12 07:19:00;;;;;;;11.05;4.68;;;;;;;;;;5050020;28;20036;-74
2021/06/12 07:21:26;;;;;;;6.05;4.32;;;;;;;;;;5053673;28;20437;-73
2021/06/12 07:23:51;;;;;;;7.37;4.50;;;;;;;;;;5055193;28;20097;-73
2021/06/12 07:26:16;;;;;;;5.60;4.73;;;;;;;;;;5036866;28;20264;-74
2021/06/12 07:28:41;;;;;;;5.80;5.07;;;;;;;;;;5057020;28;20382;-73
2021/06/12 07:31:06;;;;;;;5.80;4.70;;;;;;;;;;5060931;28;20173;-71
2021/06/12 07:33:31;;;;;;;5.10;4.10;;;;;;;;;;5059311;28;20309;-72
2021/06/12 07:35:57;;;;;;;8.30;4.60;;;;;;;;;;5059256;28;20270;-72
2021/06/12 07:38:22;;;;;;;5.93;4.63;;;;;;;;;;5062617;28;20031;-72
2021/06/12 07:40:47;;;;;;;5.95;4.75;;;;;;;;;;5063514;28;20036;-71
2021/06/12 07:43:18;;;;;;;6.27;4.93;;;;;;;;;;5057883;28;20404;-75
2021/06/12 07:45:43;;;;;;;7.57;5.65;;;;;;;;;;5064736;28;20279;-71
2021/06/12 07:48:09;;;;;;;8.40;5.30;;;;;;;;;;5050043;28;20116;-72
2021/06/12 07:50:34;;;;;;;6.40;4.93;;;;;;;;;;5049914;28;20268;-73
2021/06/12 07:52:59;;;;;;;6.45;5.13;;;;;;;;;;5026017;28;20120;-72
2021/06/12 07:55:24;;;;;;;6.50;5.20;;;;;;;;;;5059731;28;20025;-73
2021/06/12 07:57:50;;;;;;;9.73;5.30;;;;;;;;;;5058974;28;20287;-72
2021/06/12 08:00:15;;;;;;;8.43;5.65;;;;;;;;;;5059688;28;20055;-72
2021/06/12 08:02:40;;;;;;;5.45;4.50;;;;;;;;;;5046095;28;20025;-73
2021/06/12 08:05:06;;;;;;;6.15;5.35;;;;;;;;;;5054080;28;20036;-72
2021/06/12 08:07:31;;;;;;;6.82;5.03;;;;;;;;;;5050459;28;20032;-73
2021/06/12 08:10:02;;;;;;;7.97;5.10;;;;;;;;;;5049001;28;20570;-74
2021/06/12 08:12:27;;;;;;;7.13;5.15;;;;;;;;;;5053792;28;20258;-73
2021/06/12 08:14:52;;;;;;;5.90;4.87;;;;;;;;;;5049113;28;20042;-74
2021/06/12 08:17:17;;;;;;;6.67;5.00;;;;;;;;;;5059430;28;20796;-72
2021/06/12 08:19:42;;;;;;;7.90;5.63;;;;;;;;;;5051163;28;20337;-74
2021/06/12 08:22:08;;;;;;;5.93;4.97;;;;;;;;;;5030095;28;20766;-73
2021/06/12 08:24:34;;;;;;;6.53;5.72;;;;;;;;;;5054499;28;20271;-72
2021/06/12 08:27:00;;;;;;;8.68;5.10;;;;;;;;;;5049423;28;20028;-72
2021/06/12 08:29:25;;;;;;;6.57;4.97;;;;;;;;;;5055879;28;20064;-72
2021/06/12 08:31:50;;;;;;;6.80;5.07;;;;;;;;;;5031736;28;20364;-75
2021/06/12 08:34:15;;;;;;;6.35;5.30;;;;;;;;;;5039283;28;20389;-74
2021/06/12 08:36:40;;;;;;;6.22;4.97;;;;;;;;;;5061395;28;20058;-72
2021/06/12 08:39:06;;;;;;;7.80;4.93;;;;;;;;;;5058503;28;20471;-75
2021/06/12 08:41:31;;;;;;;7.97;5.03;;;;;;;;;;5052721;28;20325;-75
2021/06/12 08:44:00;;;;;;;6.73;4.80;;;;;;;;;;5048237;28;20047;-75
2021/06/12 08:46:25;;;;;;;7.78;4.53;;;;;;;;;;5047826;28;20276;-76
2021/06/12 08:48:51;;;;;;;5.20;4.68;;;;;;;;;;5048006;28;20151;-77
2021/06/12 08:51:16;;;;;;;8.18;5.13;;;;;;;;;;5047209;28;20032;-74
2021/06/12 08:53:41;;;;;;;7.17;5.43;;;;;;;;;;5049918;28;20029;-74
2021/06/12 08:56:06;;;;;;;8.07;5.27;;;;;;;;;;5047282;28;20901;-73
2021/06/12 08:58:31;;;;;;;7.07;5.20;;;;;;;;;;5050947;28;20277;-73
2021/06/12 09:00:56;;;;;;;8.70;6.00;;;;;;;;;;5045980;28;20439;-75
2021/06/12 09:03:23;;;;;;;8.60;5.70;;;;;;;;;;5058060;28;20332;-71
2021/06/12 09:05:58;;;;;;;6.28;5.25;;;;;;;;;;5049716;28;20067;-72
2021/06/12 09:08:31;;;;;;;9.95;5.00;;;;;;;;;;5068670;28;20036;-78
2021/06/12 09:11:03;;;;;;;6.32;4.80;;;;;;;;;;5057666;28;20797;-77
2021/06/12 09:13:47;;;;;;;6.43;4.80;;;;;;;;;;5052274;28;20025;-82
2021/06/12 09:16:25;;;;;;;5.85;4.90;;;;;;;;;;5046874;28;20017;-82
2021/06/12 09:18:51;;;;;;;7.13;6.40;;;;;;;;;;5043182;28;20025;-80
2021/06/12 09:21:23;;;;;;;7.07;4.88;;;;;;;;;;5021510;28;20064;-75
2021/06/12 09:23:48;;;;;;;5.93;4.90;;;;;;;;;;5042275;28;20064;-75
2021/06/12 09:26:14;;;;;;;8.85;5.10;;;;;;;;;;5046101;28;20483;-74
2021/06/12 09:28:54;;;;;;;6.57;5.37;;;;;;;;;;5047501;28;20052;-76
2021/06/12 09:31:23;;;;;;;5.90;5.30;;;;;;;;;;5034400;28;20763;-78
2021/06/12 09:33:48;;;;;;;7.47;5.93;;;;;;;;;;5041603;28;20063;-75
2021/06/12 09:36:14;;;;;;;6.70;5.40;;;;;;;;;;5044274;28;20013;-78
2021/06/12 09:38:41;;;;;;;7.03;5.28;;;;;;;;;;5040417;28;20039;-75
2021/06/12 09:41:27;;;;;;;8.25;5.47;;;;;;;;;;5045361;28;20186;-75
2021/06/12 09:43:52;;;;;;;5.78;5.07;;;;;;;;;;5046404;28;20079;-73
2021/06/12 09:46:34;;;;;;;7.40;5.40;;;;;;;;;;5043141;28;20021;-73
2021/06/12 09:48:59;;;;;;;5.95;5.32;;;;;;;;;;5045060;28;20033;-74
2021/06/12 09:51:24;;;;;;;7.13;5.25;;;;;;;;;;5044095;28;20116;-73
2021/06/12 09:53:51;;;;;;;5.60;5.00;;;;;;;;;;5031081;28;20144;-73
2021/06/12 09:56:16;;;;;;;8.68;5.32;;;;;;;;;;5049694;28;20057;-76
2021/06/12 09:58:42;;;;;;;5.93;5.10;;;;;;;;;;5052597;28;20154;-74
2021/06/12 10:01:08;;;;;;;5.82;4.88;;;;;;;;;;5044406;28;20383;-73
2021/06/12 10:03:33;;;;;;;5.05;4.55;;;;;;;;;;5040225;28;20029;-77
2021/06/12 10:06:16;;;;;;;7.88;5.60;;;;;;;;;;5044646;28;20098;-77
2021/06/12 10:08:43;;;;;;;6.10;5.50;;;;;;;;;;5045518;28;20072;-74
2021/06/12 10:11:08;;;;;;;7.95;5.60;;;;;;;;;;5049139;28;20043;-73
2021/06/12 10:13:34;;;;;;;8.60;5.03;;;;;;;;;;5046994;28;20480;-73
2021/06/12 10:16:00;;;;;;;5.70;5.10;;;;;;;;;;5043645;28;20096;-72
2021/06/12 10:18:26;;;;;;;7.15;5.03;;;;;;;;;;5048568;28;20033;-75
2021/06/12 10:20:51;;;;;;;5.70;5.10;;;;;;;;;;5057113;28;20071;-74
2021/06/12 10:23:17;;;;;;;6.68;5.32;;;;;;;;;;5049580;28;20029;-75
2021/06/12 10:25:42;;;;;;;7.22;5.40;;;;;;;;;;5051531;28;20031;-80
2021/06/12 10:28:08;;;;;;;8.35;5.07;;;;;;;;;;5051442;28;20032;-81
2021/06/12 10:30:34;;;;;;;5.95;4.55;;;;;;;;;;5057921;28;20027;-89
2021/06/12 10:32:59;;;;;;;4.85;4.28;;;;;;;;;;5058516;28;20028;-84
2021/06/12 10:35:25;;;;;;;5.68;4.20;;;;;;;;;;5054542;28;20045;-78
2021/06/12 10:38:00;;;;;;;8.40;4.53;;;;;;;;;;5066078;28;20080;-75
2021/06/12 10:40:35;;;;;;;5.88;4.20;;;;;;;;;;5055479;28;20024;-79
2021/06/12 10:43:08;;;;;;;8.10;4.57;;;;;;;;;;5052238;28;20072;-64
2021/06/12 10:45:34;;;;;;;4.82;3.90;;;;;;;;;;5047707;28;20017;-63
2021/06/12 10:47:59;;;;;;;4.90;3.38;;;;;;;;;;5054973;28;20055;-63
2021/06/12 10:50:27;;;;;;;7.55;3.85;;;;;;;;;;5049794;28;20024;-63
2021/06/12 10:52:53;;;;;;;4.10;3.70;;;;;;;;;;5041497;28;20031;-64
2021/06/12 10:55:37;;;;;;;5.88;3.67;;;;;;;;;;5047215;28;20510;-64
2021/06/12 10:58:02;;;;;;;5.75;3.97;;;;;;;;;;5045258;28;20025;-63
2021/06/12 11:00:27;;;;;;;4.95;3.42;;;;;;;;;;5049536;28;20017;-64
2021/06/12 11:02:56;;;;;;;4.45;3.60;;;;;;;;;;5062000;28;20031;-64
2021/06/12 11:05:28;;;;;;;5.35;3.60;;;;;;;;;;5050072;28;20025;-64
2021/06/12 11:08:12;;;;;;;4.45;3.50;;;;;;;;;;5053541;28;20118;-65
2021/06/12 11:10:37;;;;;;;5.50;3.50;;;;;;;;;;5050682;28;20061;-63
2021/06/12 11:13:21;;;;;;;4.07;3.50;;;;;;;;;;5052275;28;20499;-65
2021/06/12 11:15:46;;;;;;;4.55;3.42;;;;;;;;;;5061188;28;20401;-63
2021/06/12 11:18:21;;;;;;;3.35;2.90;;;;;;;;;;5053392;28;20123;-64
2021/06/12 11:20:48;;;;;;;4.95;3.03;;;;;;;;;;5050601;28;20036;-63
2021/06/12 11:23:16;;;;;;;4.50;3.35;;;;;;;;;;5046304;28;20021;-64
2021/06/12 11:25:43;;;;;;;6.85;3.33;;;;;;;;;;5048578;28;20029;-63
2021/06/12 11:28:25;;;;;;;6.97;4.70;;;;;;;;;;5051680;28;20480;-63
2021/06/12 11:30:51;;;;;;;8.57;3.80;;;;;;;;;;5057294;28;20035;-65
2021/06/12 11:33:17;;;;;;;5.20;3.30;;;;;;;;;;5048607;28;20033;-65
2021/06/12 11:35:45;;;;;;;6.18;3.40;;;;;;;;;;5048346;28;20056;-67
2021/06/12 11:38:29;;;;;;;4.57;3.55;;;;;;;;;;5054054;28;20025;-68
2021/06/12 11:41:03;;;;;;;6.88;3.90;;;;;;;;;;5047986;28;20063;-67
2021/06/12 11:43:41;;;;;;;5.65;3.60;;;;;;;;;;5055592;28;20029;-66
2021/06/12 11:46:08;;;;;;;5.15;3.55;;;;;;;;;;5051543;28;20024;-67
2021/06/12 11:48:38;;;;;;;4.25;3.60;;;;;;;;;;5063925;28;20044;-67
2021/06/12 11:51:10;;;;;;;6.80;3.40;;;;;;;;;;5060087;28;20021;-66
2021/06/12 11:53:35;;;;;;;4.15;3.67;;;;;;;;;;5048126;28;20036;-67
2021/06/12 11:56:01;;;;;;;5.90;3.90;;;;;;;;;;5048578;28;20032;-66
2021/06/12 11:58:26;;;;;;;5.82;3.35;;;;;;;;;;5049092;28;20627;-70
2021/06/12 12:00:51;;;;;;;4.80;3.47;;;;;;;;;;5051206;28;20120;-68
2021/06/12 12:03:18;;;;;;;4.45;3.30;;;;;;;;;;5055568;28;20024;-68
2021/06/12 12:05:44;;;;;;;4.47;3.30;;;;;;;;;;5048814;28;20033;-69
2021/06/12 12:08:10;;;;;;;5.53;3.30;;;;;;;;;;5048950;28;20087;-68
2021/06/12 12:10:36;;;;;;;4.68;3.15;;;;;;;;;;5056241;28;20074;-68
2021/06/12 12:13:01;;;;;;;3.78;3.30;;;;;;;;;;5055774;28;20448;-67
2021/06/12 12:15:33;;;;;;;4.78;4.03;;;;;;;;;;5055478;28;20146;-68
2021/06/12 12:18:02;;;;;;;5.50;4.20;;;;;;;;;;5057458;28;20093;-68
2021/06/12 12:20:27;;;;;;;4.93;4.07;;;;;;;;;;5049170;28;20017;-68
2021/06/12 12:22:53;;;;;;;4.77;3.83;;;;;;;;;;5062346;28;20097;-69
2021/06/12 12:25:26;;;;;;;6.63;3.88;;;;;;;;;;5048474;28;21153;-69
2021/06/12 12:28:03;;;;;;;4.38;3.92;;;;;;;;;;5062942;28;20061;-67
2021/06/12 12:30:28;;;;;;;6.18;4.20;;;;;;;;;;5043764;28;20032;-68
2021/06/12 12:32:53;;;;;;;4.10;3.70;;;;;;;;;;5045940;28;20033;-67
2021/06/12 12:35:20;;;;;;;4.70;3.67;;;;;;;;;;5044535;28;20303;-68
2021/06/12 12:37:45;;;;;;;4.93;4.20;;;;;;;;;;5044923;28;20275;-68
2021/06/12 12:40:17;;;;;;;5.22;3.83;;;;;;;;;;5049193;28;20025;-63
2021/06/12 12:42:42;;;;;;;5.35;4.35;;;;;;;;;;5045947;28;20013;-62
2021/06/12 12:45:08;;;;;;;4.55;3.95;;;;;;;;;;5044692;28;20028;-63
2021/06/12 12:47:33;;;;;;;5.20;3.65;;;;;;;;;;5052873;28;20033;-63
2021/06/12 12:50:01;;;;;;;5.93;3.90;;;;;;;;;;5047040;28;20028;-63
2021/06/12 12:52:27;;;;;;;4.65;3.60;;;;;;;;;;5053734;28;20089;-64
2021/06/12 12:54:57;;;;;;;5.40;4.25;;;;;;;;;;5056522;28;20045;-63
2021/06/12 12:57:22;;;;;;;7.28;3.80;;;;;;;;;;5046935;28;20025;-66
2021/06/12 12:59:47;;;;;;;3.57;3.10;;;;;;;;;;5045857;28;20028;-64
2021/06/12 13:02:14;;;;;;;5.30;3.67;;;;;;;;;;5054006;28;20362;-64
2021/06/12 13:04:43;;;;;;;4.88;3.72;;;;;;;;;;5062923;28;20392;-64
2021/06/12 13:07:10;;;;;;;6.18;4.25;;;;;;;;;;5046594;28;20040;-65
2021/06/12 13:09:37;;;;;;;6.68;4.13;;;;;;;;;;5053484;28;20041;-64
2021/06/12 13:12:07;;;;;;;4.88;4.20;;;;;;;;;;5043591;28;20024;-73
2021/06/12 13:14:33;;;;;;;5.80;4.88;;;;;;;;;;5039400;28;20106;-74
2021/06/12 13:17:00;;;;;;;7.88;4.50;;;;;;;;;;5048386;28;20171;-73
2021/06/12 13:19:29;;;;;;;6.53;4.20;;;;;;;;;;5061343;28;20157;-74
2021/06/12 13:21:54;;;;;;;6.07;4.93;;;;;;;;;;5058028;28;20033;-74
2021/06/12 13:24:19;;;;;;;4.88;4.35;;;;;;;;;;5051422;28;20155;-75
2021/06/12 13:26:44;;;;;;;4.23;3.80;;;;;;;;;;5049372;28;20171;-74
2021/06/12 13:29:17;;;;;;;7.47;4.20;;;;;;;;;;5050701;28;20317;-74
2021/06/12 13:31:42;;;;;;;6.32;4.43;;;;;;;;;;5052921;28;20270;-74
2021/06/12 13:34:23;;;;;;;5.33;4.00;;;;;;;;;;5059204;28;20361;-75
2021/06/12 13:36:53;;;;;;;5.72;4.72;;;;;;;;;;5062379;28;20025;-75
2021/06/12 13:39:18;;;;;;;;;;;;;;;;;;5048306;28;20384;-74
2021/06/12 13:41:43;;;;;;;7.65;4.70;;;;;;;;;;5050210;28;20342;-73
2021/06/12 13:44:08;;;;;;;4.60;4.07;;;;;;;;;;5042004;28;20060;-74
2021/06/12 13:46:33;;;;;;;5.43;3.85;;;;;;;;;;5049534;28;20028;-74
2021/06/12 13:49:02;;;;;;;5.53;4.20;;;;;;;;;;5056594;28;20032;-73
2021/06/12 13:51:27;;;;;;;5.22;4.72;;;;;;;;;;5062395;28;20270;-73
2021/06/12 13:53:55;;;;;;;6.10;4.63;;;;;;;;;;5061981;28;20101;-73
2021/06/12 13:56:21;;;;;;;5.25;4.68;;;;;;;;;;5048526;28;20679;-74
2021/06/12 13:58:47;;;;;;;6.97;4.25;;;;;;;;;;5050502;28;20026;-74
2021/06/12 14:01:14;;;;;;;7.10;4.63;;;;;;;;;;5055847;28;20033;-74
2021/06/12 14:03:39;;;;;;;5.78;4.28;;;;;;;;;;5049679;28;20024;-74
2021/06/12 14:06:05;;;;;;;6.63;4.53;;;;;;;;;;5058292;28;20110;-74
2021/06/12 14:08:30;;;;;;;7.05;4.25;;;;;;;;;;5055386;28;20115;-75
2021/06/12 14:10:55;;;;;;;7.68;5.05;;;;;;;;;;5062924;28;20040;-75
2021/06/12 14:13:21;;;;;;;6.18;4.82;;;;;;;;;;5058433;28;20110;-73
2021/06/12 14:15:46;;;;;;;5.73;4.90;;;;;;;;;;5057344;28;20024;-76
2021/06/12 14:18:11;;;;;;;5.03;4.53;;;;;;;;;;5061187;28;20843;-73
2021/06/12 14:20:36;;;;;;;4.85;4.28;;;;;;;;;;5056935;28;20280;-74
2021/06/12 14:23:02;;;;;;;5.40;4.45;;;;;;;;;;5056081;28;20028;-74
2021/06/12 14:25:29;;;;;;;7.85;4.70;;;;;;;;;;5050783;28;20448;-73
2021/06/12 14:27:57;;;;;;;7.45;4.80;;;;;;;;;;5060957;28;20064;-75
2021/06/12 14:30:23;;;;;;;7.82;5.28;;;;;;;;;;5050588;28;20047;-73
2021/06/12 14:32:48;;;;;;;7.05;4.78;;;;;;;;;;5053130;28;20028;-74
2021/06/12 14:35:13;;;;;;;6.30;5.47;;;;;;;;;;5060551;28;20044;-73
2021/06/12 14:37:39;;;;;;;10.20;7.22;;;;;;;;;;5060467;28;20103;-74
2021/06/12 14:40:05;;;;;;;10.85;7.30;;;;;;;;;;5052158;28;20025;-73